createdAt,value
2019-04-05T00:02:09.298Z,8.78
2019-04-05T00:04:38.719Z,8.69
2019-04-05T00:07:09.136Z,8.72
2019-04-05T00:09:40.686Z,8.70
2019-04-05T00:12:10.290Z,8.77
2019-04-05T00:14:40.820Z,8.77
2019-04-05T00:17:11.185Z,8.68
2019-04-05T00:19:41.559Z,8.74
2019-04-05T00:22:11.888Z,8.79
2019-04-05T00:24:42.257Z,8.75
2019-04-05T00:27:11.667Z,8.77
2019-04-05T00:29:40.457Z,8.76
2019-04-05T00:32:09.941Z,8.61
2019-04-05T00:34:40.747Z,8.58
2019-04-05T00:37:11.162Z,8.56
2019-04-05T00:39:40.561Z,8.55
2019-04-05T00:42:09.395Z,8.52
2019-04-05T00:44:39.696Z,8.51
2019-04-05T00:47:10.267Z,8.61
2019-04-05T00:49:39.755Z,8.60
2019-04-05T00:52:09.151Z,8.55
2019-04-05T00:54:39.711Z,8.65
2019-04-05T00:57:09.113Z,8.66
2019-04-05T00:59:39.441Z,8.66
2019-04-05T01:02:09.778Z,8.62
2019-04-05T01:04:39.139Z,8.70
2019-04-05T01:07:09.751Z,8.63
2019-04-05T01:09:39.264Z,8.58
2019-04-05T01:12:09.735Z,8.62
2019-04-05T01:14:39.247Z,8.52
2019-04-05T01:17:09.975Z,8.57
2019-04-05T01:19:43.217Z,8.57
2019-04-05T01:22:15.469Z,8.57
2019-04-05T01:24:48.753Z,8.62
2019-04-05T01:27:19.851Z,8.65
2019-04-05T01:29:50.422Z,8.56
2019-04-05T01:32:21.166Z,8.60
2019-04-05T01:34:51.507Z,8.46
2019-04-05T01:37:23.913Z,8.59
2019-04-05T01:39:56.515Z,8.54
2019-04-05T01:42:27.632Z,8.47
2019-04-05T01:44:58.790Z,8.39
2019-04-05T01:47:28.312Z,8.41
2019-04-05T01:49:57.728Z,8.37
2019-04-05T01:52:27.251Z,8.42
2019-04-05T01:54:57.694Z,8.42
2019-04-05T01:57:27.100Z,8.25
2019-04-05T01:59:56.526Z,8.31
2019-04-05T02:02:26.028Z,8.23
2019-04-05T02:04:56.759Z,8.23
2019-04-05T02:07:27.321Z,8.23
2019-04-05T02:09:58.130Z,8.25
2019-04-05T02:12:27.619Z,8.19
2019-04-05T02:14:56.447Z,8.19
2019-04-05T02:17:26.905Z,8.07
2019-04-05T02:19:56.469Z,8.13
2019-04-05T02:22:26.002Z,8.17
2019-04-05T02:24:58.381Z,8.10
2019-04-05T02:27:28.917Z,8.14
2019-04-05T02:29:59.285Z,8.15
2019-04-05T02:32:28.881Z,8.04
2019-04-05T02:34:58.293Z,8.03
2019-04-05T02:37:28.845Z,8.03
2019-04-05T02:39:58.265Z,8.06
2019-04-05T02:42:30.390Z,8.07
2019-04-05T02:45:01.426Z,8.09
2019-04-05T02:47:31.668Z,8.13
2019-04-05T02:50:02.337Z,8.15
2019-04-05T02:52:32.156Z,8.05
2019-04-05T02:55:02.978Z,8.10
2019-04-05T02:57:33.235Z,8.10
2019-04-05T03:00:04.003Z,8.06
2019-04-05T03:02:34.583Z,8.10
2019-04-05T03:05:04.395Z,8.04
2019-04-05T03:07:34.964Z,8.04
2019-04-05T03:10:08.512Z,8.06
2019-04-05T03:12:38.830Z,8.09
2019-04-05T03:15:10.290Z,8.10
2019-04-05T03:17:41.183Z,8.06
2019-04-05T03:20:12.005Z,8.04
2019-04-05T03:22:42.546Z,8.03
2019-04-05T03:25:12.252Z,7.92
2019-04-05T03:27:41.663Z,7.99
2019-04-05T03:30:11.495Z,8.12
2019-04-05T03:32:41.970Z,8.17
2019-04-05T03:35:12.480Z,8.22
2019-04-05T03:37:43.543Z,8.19
2019-04-05T03:40:13.321Z,8.15
2019-04-05T03:42:44.415Z,8.20
2019-04-05T03:45:14.031Z,8.15
2019-04-05T03:47:43.658Z,8.17
2019-04-05T03:50:13.635Z,8.22
2019-04-05T03:52:44.142Z,8.23
2019-04-05T03:55:13.084Z,8.29
2019-04-05T03:57:43.616Z,8.28
2019-04-05T04:00:16.199Z,8.18
2019-04-05T04:02:46.728Z,8.20
2019-04-05T04:05:17.441Z,8.16
2019-04-05T04:07:49.192Z,8.19
2019-04-05T04:10:22.669Z,8.21
2019-04-05T04:12:53.133Z,8.23
2019-04-05T04:15:22.607Z,8.10
2019-04-05T04:17:52.591Z,8.14
2019-04-05T04:20:41.180Z,8.08
2019-04-05T04:23:12.790Z,8.00
2019-04-05T04:25:44.487Z,8.07
2019-04-05T04:28:15.532Z,8.13
2019-04-05T04:30:47.399Z,8.13
2019-04-05T04:33:18.254Z,8.17
2019-04-05T04:35:47.823Z,8.09
2019-04-05T04:38:19.096Z,8.09
2019-04-05T04:40:50.050Z,8.10
2019-04-05T04:43:19.770Z,7.85
2019-04-05T04:45:50.457Z,8.05
2019-04-05T04:48:20.184Z,8.14
2019-04-05T04:50:51.259Z,8.25
2019-04-05T04:53:22.199Z,8.30
2019-04-05T04:55:51.668Z,8.28
2019-04-05T04:58:23.206Z,8.28
2019-04-05T05:00:55.904Z,8.20
2019-04-05T05:03:25.483Z,8.16
2019-04-05T05:05:55.473Z,8.22
2019-04-05T05:08:26.181Z,7.98
2019-04-05T05:10:55.690Z,8.12
2019-04-05T05:13:24.754Z,8.20
2019-04-05T05:15:57.404Z,8.15
2019-04-05T05:18:26.875Z,8.19
2019-04-05T05:20:57.372Z,8.30
2019-04-05T05:23:29.497Z,8.35
2019-04-05T05:25:59.895Z,8.40
2019-04-05T05:28:32.632Z,8.27
2019-04-05T05:31:02.232Z,8.29
2019-04-05T05:33:32.057Z,8.34
2019-04-05T05:36:01.163Z,8.42
2019-04-05T05:38:31.637Z,8.37
2019-04-05T05:41:01.198Z,8.41
2019-04-05T05:43:29.978Z,8.46
2019-04-05T05:46:02.474Z,8.52
2019-04-05T05:48:35.072Z,8.63
2019-04-05T05:51:05.618Z,8.71
2019-04-05T05:53:34.988Z,8.76
2019-04-05T05:56:04.537Z,8.88
2019-04-05T05:58:34.918Z,8.94
2019-04-05T06:01:05.467Z,8.78
2019-04-05T06:03:34.841Z,8.71
2019-04-05T06:06:04.941Z,8.68
2019-04-05T06:08:37.271Z,8.71
2019-04-05T06:11:06.645Z,8.76
2019-04-05T06:13:38.205Z,8.60
2019-04-05T06:16:07.597Z,8.51
2019-04-05T06:18:37.278Z,8.62
2019-04-05T06:21:07.626Z,8.60
2019-04-05T06:23:37.032Z,8.61
2019-04-05T06:26:07.501Z,8.61
2019-04-05T06:28:38.620Z,8.73
2019-04-05T06:31:09.155Z,8.75
2019-04-05T06:33:39.536Z,8.86
2019-04-05T06:36:12.045Z,9.00
2019-04-05T06:38:42.462Z,8.97
2019-04-05T06:41:14.946Z,9.03
2019-04-05T06:43:45.294Z,9.07
2019-04-05T06:46:14.653Z,9.20
2019-04-05T06:48:45.073Z,9.12
2019-04-05T06:51:15.541Z,9.08
2019-04-05T06:53:44.930Z,9.04
2019-04-05T06:56:15.400Z,9.28
2019-04-05T06:58:46.457Z,9.36
2019-04-05T07:01:18.698Z,9.31
2019-04-05T07:03:48.119Z,9.23
2019-04-05T07:06:17.541Z,9.26
2019-04-05T07:08:53.737Z,9.16
2019-04-05T07:11:19.904Z,9.19
2019-04-05T07:13:50.449Z,9.10
2019-04-05T07:16:20.870Z,9.12
2019-04-05T07:18:50.314Z,9.04
2019-04-05T07:21:20.655Z,9.30
2019-04-05T07:23:50.122Z,9.43
2019-04-05T07:26:21.104Z,9.50
2019-04-05T07:28:51.608Z,9.58
2019-04-05T07:31:21.013Z,9.45
2019-04-05T07:33:51.407Z,9.46
2019-04-05T07:36:21.884Z,9.40
2019-04-05T07:38:51.379Z,9.42
2019-04-05T07:41:21.858Z,9.38
2019-04-05T07:43:52.271Z,9.46
2019-04-05T07:46:22.669Z,9.34
2019-04-05T07:48:52.081Z,9.43
2019-04-05T07:51:22.952Z,9.31
2019-04-05T07:53:52.438Z,9.21
2019-04-05T07:56:23.164Z,9.12
2019-04-05T07:58:53.809Z,9.23
2019-04-05T08:01:23.268Z,9.16
2019-04-05T08:03:52.744Z,9.10
2019-04-05T08:06:23.210Z,9.27
2019-04-05T08:09:02.799Z,9.30
2019-04-05T08:11:32.645Z,9.42
2019-04-05T08:14:04.108Z,9.64
2019-04-05T08:16:33.700Z,9.82
2019-04-05T08:19:04.239Z,9.87
2019-04-05T08:21:34.641Z,10.07
2019-04-05T08:24:05.232Z,9.95
2019-04-05T08:26:34.645Z,9.91
2019-04-05T08:29:05.120Z,9.88
2019-04-05T08:31:35.473Z,9.60
2019-04-05T08:34:06.032Z,9.67
2019-04-05T08:36:35.426Z,9.61
2019-04-05T08:39:08.497Z,9.49
2019-04-05T08:41:38.917Z,9.11
2019-04-05T08:44:08.387Z,9.17
2019-04-05T08:46:37.777Z,9.31
2019-04-05T08:49:10.881Z,9.34
2019-04-05T08:51:40.538Z,9.52
2019-04-05T08:54:12.918Z,9.43
2019-04-05T08:56:43.320Z,9.40
2019-04-05T08:59:13.814Z,9.30
2019-04-05T09:01:44.251Z,9.44
2019-04-05T09:04:13.642Z,9.74
2019-04-05T09:06:43.970Z,10.02
2019-04-05T09:09:13.484Z,10.16
2019-04-05T09:11:42.876Z,10.27
2019-04-05T09:14:13.327Z,10.43
2019-04-05T09:16:43.746Z,10.14
2019-04-05T09:19:22.984Z,10.37
2019-04-05T09:21:44.151Z,10.67
2019-04-05T09:24:14.133Z,10.80
2019-04-05T09:26:44.427Z,10.41
2019-04-05T09:29:12.966Z,10.11
2019-04-05T09:31:41.730Z,10.27
2019-04-05T09:34:11.192Z,10.02
2019-04-05T09:36:43.023Z,10.55
2019-04-05T09:39:15.660Z,10.25
2019-04-05T09:41:43.938Z,10.37
2019-04-05T09:44:14.550Z,10.29
2019-04-05T09:46:47.232Z,10.49
2019-04-05T09:49:15.311Z,10.62
2019-04-05T09:51:48.694Z,10.89
2019-04-05T09:54:18.178Z,10.75
2019-04-05T09:56:48.570Z,11.03
2019-04-05T09:59:18.978Z,11.36
2019-04-05T10:01:48.381Z,11.20
2019-04-05T10:04:17.841Z,11.30
2019-04-05T10:06:48.220Z,11.29
2019-04-05T10:09:17.623Z,11.03
2019-04-05T10:11:47.143Z,11.27
2019-04-05T10:14:17.958Z,11.37
2019-04-05T10:16:48.363Z,11.87
2019-04-05T10:19:17.795Z,11.56
2019-04-05T10:21:47.247Z,11.56
2019-04-05T10:24:16.595Z,12.01
2019-04-05T10:26:46.143Z,12.54
2019-04-05T10:29:16.491Z,12.91
2019-04-05T10:31:48.439Z,12.89
2019-04-05T10:34:19.021Z,13.77
2019-04-05T10:36:48.524Z,13.64
2019-04-05T10:39:17.849Z,13.21
2019-04-05T10:42:02.895Z,12.99
2019-04-05T10:44:21.406Z,12.53
2019-04-05T10:46:50.836Z,12.46
2019-04-05T10:49:19.667Z,12.37
2019-04-05T10:51:52.055Z,12.08
2019-04-05T10:54:21.576Z,12.29
2019-04-05T10:56:50.992Z,12.66
2019-04-05T10:59:19.722Z,12.36
2019-04-05T11:01:49.185Z,12.28
2019-04-05T11:04:18.590Z,12.02
2019-04-05T11:06:50.950Z,11.81
2019-04-05T11:09:21.323Z,11.74
2019-04-05T11:11:50.827Z,11.39
2019-04-05T11:14:20.228Z,11.44
2019-04-05T11:16:58.188Z,11.61
2019-04-05T11:19:23.896Z,12.24
2019-04-05T11:21:54.258Z,12.37
2019-04-05T11:24:23.731Z,12.93
2019-04-05T11:26:52.613Z,12.92
2019-04-05T11:29:21.983Z,13.53
2019-04-05T11:31:57.215Z,13.81
2019-04-05T11:34:27.484Z,14.67
2019-04-05T11:36:57.624Z,14.34
2019-04-05T11:39:27.900Z,14.72
2019-04-05T11:41:58.961Z,14.84
2019-04-05T11:44:31.793Z,14.93
2019-04-05T11:47:01.552Z,14.80
2019-04-05T11:49:32.428Z,14.93
2019-04-05T11:52:02.839Z,14.63
2019-04-05T11:54:33.203Z,13.78
2019-04-05T11:57:04.583Z,14.03
2019-04-05T11:59:34.171Z,14.51
2019-04-05T12:02:20.243Z,14.49
2019-04-05T12:04:50.660Z,14.54
2019-04-05T12:07:24.001Z,14.46
2019-04-05T12:09:53.622Z,14.38
2019-04-05T12:12:25.568Z,13.76
2019-04-05T12:14:56.300Z,14.27
2019-04-05T12:17:26.941Z,14.52
2019-04-05T12:19:56.365Z,14.57
2019-04-05T12:22:26.918Z,14.76
2019-04-05T12:24:57.432Z,13.91
2019-04-05T12:27:26.236Z,14.59
2019-04-05T12:29:55.635Z,14.63
2019-04-05T12:32:33.672Z,14.69
2019-04-05T12:35:03.644Z,14.02
2019-04-05T12:37:49.155Z,14.27
2019-04-05T12:40:11.026Z,14.28
2019-04-05T12:42:43.513Z,14.39
2019-04-05T12:45:14.677Z,14.91
2019-04-05T12:47:45.726Z,14.86
2019-04-05T12:50:17.094Z,14.69
2019-04-05T12:52:47.554Z,15.40
2019-04-05T12:55:18.378Z,15.92
2019-04-05T12:57:48.525Z,15.58
2019-04-05T13:00:20.565Z,15.23
2019-04-05T13:02:50.899Z,15.51
2019-04-05T13:05:21.869Z,15.49
2019-04-05T13:07:53.398Z,14.89
2019-04-05T13:10:26.158Z,15.31
2019-04-05T13:12:58.226Z,15.25
2019-04-05T13:15:28.626Z,15.07
2019-04-05T13:18:00.306Z,15.70
2019-04-05T13:20:30.793Z,16.05
2019-04-05T13:23:04.295Z,15.44
2019-04-05T13:25:33.690Z,14.81
2019-04-05T13:28:12.698Z,15.01
2019-04-05T13:30:36.916Z,15.19
2019-04-05T13:33:06.421Z,15.62
2019-04-05T13:35:36.892Z,15.70
2019-04-05T13:38:07.248Z,15.20
2019-04-05T13:40:36.667Z,15.25
2019-04-05T13:43:07.135Z,15.87
2019-04-05T13:45:38.802Z,16.33
2019-04-05T13:48:09.129Z,16.13
2019-04-05T13:50:41.414Z,16.04
2019-04-05T13:53:11.334Z,16.16
2019-04-05T13:55:41.434Z,16.19
2019-04-05T13:58:12.066Z,15.85
2019-04-05T14:00:42.618Z,16.07
2019-04-05T14:03:12.014Z,16.36
2019-04-05T14:05:42.104Z,16.14
2019-04-05T14:08:11.538Z,16.40
2019-04-05T14:10:41.940Z,15.78
2019-04-05T14:13:12.444Z,15.63
2019-04-05T14:15:43.158Z,16.02
2019-04-05T14:18:15.242Z,15.64
2019-04-05T14:20:45.142Z,15.20
2019-04-05T14:23:14.533Z,15.27
2019-04-05T14:25:44.880Z,15.32
2019-04-05T14:28:17.175Z,15.44
2019-04-05T14:30:47.694Z,14.93
2019-04-05T14:33:18.092Z,14.95
2019-04-05T14:35:48.507Z,15.13
2019-04-05T14:38:17.962Z,15.21
2019-04-05T14:40:47.465Z,15.60
2019-04-05T14:43:16.924Z,15.81
2019-04-05T14:45:46.413Z,15.79
2019-04-05T14:48:18.745Z,15.39
2019-04-05T14:50:49.252Z,15.31
2019-04-05T14:53:19.658Z,15.44
2019-04-05T14:55:49.085Z,15.53
2019-04-05T14:58:21.521Z,15.66
2019-04-05T15:00:50.901Z,15.21
2019-04-05T15:03:21.621Z,15.10
2019-04-05T15:05:53.394Z,15.05
2019-04-05T15:08:26.270Z,14.87
2019-04-05T15:10:57.286Z,15.14
2019-04-05T15:13:27.818Z,15.45
2019-04-05T15:15:58.445Z,15.44
2019-04-05T15:18:29.434Z,14.82
2019-04-05T15:20:59.971Z,14.84
2019-04-05T15:23:29.603Z,14.65
2019-04-05T15:26:01.396Z,14.42
2019-04-05T15:28:33.802Z,14.56
2019-04-05T15:31:05.201Z,14.46
2019-04-05T15:33:35.653Z,14.51
2019-04-05T15:36:06.486Z,14.54
2019-04-05T15:38:35.266Z,14.29
2019-04-05T15:41:05.879Z,14.27
2019-04-05T15:43:36.340Z,14.02
2019-04-05T15:46:07.057Z,14.27
2019-04-05T15:48:38.616Z,14.37
2019-04-05T15:51:09.265Z,14.41
2019-04-05T15:53:37.752Z,14.42
2019-04-05T15:56:06.278Z,14.35
2019-04-05T15:58:38.776Z,14.23
2019-04-05T16:01:09.290Z,14.35
2019-04-05T16:03:38.796Z,14.25
2019-04-05T16:06:09.795Z,14.31
2019-04-05T16:08:39.182Z,14.34
2019-04-05T16:11:08.824Z,14.33
2019-04-05T16:13:38.232Z,14.31
2019-04-05T16:16:07.752Z,14.23
2019-04-05T16:18:37.987Z,14.20
2019-04-05T16:21:07.357Z,14.22
2019-04-05T16:23:37.776Z,14.03
2019-04-05T16:26:08.587Z,14.10
2019-04-05T16:28:40.869Z,14.11
2019-04-05T16:31:11.536Z,14.06
2019-04-05T16:33:40.896Z,14.00
2019-04-05T16:36:14.436Z,13.97
2019-04-05T16:38:46.827Z,13.99
2019-04-05T16:41:17.201Z,13.95
2019-04-05T16:43:47.568Z,13.87
2019-04-05T16:46:19.058Z,13.87
2019-04-05T16:48:49.619Z,13.81
2019-04-05T16:51:19.952Z,13.82
2019-04-05T16:54:04.088Z,13.81
2019-04-05T16:56:33.877Z,13.75
2019-04-05T16:59:03.300Z,13.78
2019-04-05T17:01:33.552Z,13.68
2019-04-05T17:04:04.058Z,13.67
2019-04-05T17:06:34.454Z,13.63
2019-04-05T17:09:04.910Z,13.54
2019-04-05T17:11:34.154Z,13.48
2019-04-05T17:14:04.618Z,13.49
2019-04-05T17:16:33.978Z,13.44
2019-04-05T17:19:04.489Z,13.43
2019-04-05T17:21:34.998Z,13.35
2019-04-05T17:24:04.476Z,13.22
2019-04-05T17:26:34.090Z,13.11
2019-04-05T17:29:03.509Z,13.00
2019-04-05T17:31:32.933Z,12.97
2019-04-05T17:34:03.377Z,12.87
2019-04-05T17:36:34.419Z,12.77
2019-04-05T17:39:04.189Z,12.76
2019-04-05T17:41:34.588Z,12.70
2019-04-05T17:44:05.202Z,12.60
2019-04-05T17:46:36.390Z,12.60
2019-04-05T17:49:07.268Z,12.59
2019-04-05T17:51:38.511Z,12.46
2019-04-05T17:54:09.010Z,12.48
2019-04-05T17:56:40.798Z,12.53
2019-04-05T17:59:13.318Z,12.53
2019-04-05T18:01:42.116Z,12.57
2019-04-05T18:04:11.788Z,12.60
2019-04-05T18:06:42.409Z,12.60
2019-04-05T18:09:20.018Z,12.59
2019-04-05T18:11:49.743Z,12.45
2019-04-05T18:14:22.187Z,12.36
2019-04-05T18:16:54.260Z,12.27
2019-04-05T18:19:23.739Z,12.21
2019-04-05T18:21:54.367Z,12.16
2019-04-05T18:24:24.959Z,12.11
2019-04-05T18:26:54.398Z,12.02
2019-04-05T18:29:31.199Z,11.96
2019-04-05T18:32:05.258Z,11.95
2019-04-05T18:34:35.679Z,11.92
2019-04-05T18:37:07.443Z,11.88
2019-04-05T18:39:38.888Z,11.85
2019-04-05T18:42:13.044Z,11.79
2019-04-05T18:44:42.618Z,11.74
2019-04-05T18:47:15.111Z,11.66
2019-04-05T18:49:45.641Z,11.68
2019-04-05T18:52:16.459Z,11.61
2019-04-05T18:54:47.997Z,11.63
2019-04-05T18:57:23.416Z,11.64
2019-04-05T18:59:52.803Z,11.62
2019-04-05T19:02:23.567Z,11.63
2019-04-05T19:04:53.978Z,11.61
2019-04-05T19:07:23.603Z,11.56
2019-04-05T19:09:54.298Z,11.58
2019-04-05T19:12:25.453Z,11.58
2019-04-05T19:14:57.666Z,11.48
2019-04-05T19:17:28.027Z,11.45
2019-04-05T19:19:58.053Z,11.43
2019-04-05T19:22:28.036Z,11.41
2019-04-05T19:24:57.359Z,11.40
2019-04-05T19:27:27.867Z,11.42
2019-04-05T19:29:57.336Z,11.38
2019-04-05T19:50:13.336Z,11.36
2019-04-05T19:52:43.722Z,11.26
2019-04-05T19:55:14.443Z,11.16
2019-04-05T19:57:43.851Z,11.07
2019-04-05T20:00:12.960Z,11.11
2019-04-05T20:02:42.543Z,11.05
2019-04-05T20:05:12.151Z,11.03
2019-04-05T20:07:42.620Z,10.83
2019-04-05T20:10:13.469Z,10.80
2019-04-05T20:12:44.061Z,10.86
2019-04-05T20:15:14.147Z,10.80
2019-04-05T20:17:46.315Z,10.83
2019-04-05T20:20:15.965Z,10.82
2019-04-05T20:22:45.360Z,10.79
2019-04-05T20:25:15.872Z,10.82
2019-04-05T20:27:46.391Z,10.81
2019-04-05T20:30:16.001Z,10.75
2019-04-05T20:32:45.430Z,10.76
2019-04-05T20:35:14.888Z,10.77
2019-04-05T20:37:45.397Z,10.78
2019-04-05T20:40:14.784Z,10.79
2019-04-05T20:42:45.079Z,10.74
2019-04-05T20:45:14.667Z,10.75
2019-04-05T20:47:45.021Z,10.78
2019-04-05T20:50:15.635Z,10.76
2019-04-05T20:52:47.923Z,10.74
2019-04-05T20:55:17.402Z,10.71
2019-04-05T20:57:47.761Z,10.57
2019-04-05T21:00:19.505Z,10.47
2019-04-05T21:02:49.810Z,10.41
2019-04-05T21:05:25.302Z,10.43
2019-04-05T21:07:51.541Z,10.41
2019-04-05T21:10:21.011Z,10.42
2019-04-05T21:12:51.375Z,10.38
2019-04-05T21:15:20.780Z,10.38
2019-04-05T21:17:50.313Z,10.44
2019-04-05T21:20:20.967Z,10.37
2019-04-05T21:22:50.290Z,10.45
2019-04-05T21:25:20.697Z,10.41
2019-04-05T21:27:53.181Z,10.32
2019-04-05T21:30:25.988Z,10.45
2019-04-05T21:32:55.362Z,10.54
2019-04-05T21:35:25.714Z,10.57
2019-04-05T21:37:56.184Z,10.60
2019-04-05T21:40:25.568Z,10.56
2019-04-05T21:42:56.308Z,10.59
2019-04-05T21:45:27.440Z,10.61
2019-04-05T21:47:57.744Z,10.63
2019-04-05T21:50:27.162Z,10.58
2019-04-05T21:52:57.526Z,10.60
2019-04-05T21:55:27.138Z,10.62
2019-04-05T21:57:56.593Z,10.52
2019-04-05T22:00:35.024Z,10.53
2019-04-05T22:03:05.437Z,10.59
2019-04-05T22:05:36.912Z,10.63
2019-04-05T22:08:05.734Z,10.62
2019-04-05T22:10:37.843Z,10.57
2019-04-05T22:13:07.289Z,10.56
2019-04-05T22:15:37.994Z,10.55
2019-04-05T22:18:07.611Z,10.57
2019-04-05T22:20:37.037Z,10.57
2019-04-05T22:23:06.545Z,10.65
2019-04-05T22:25:38.161Z,10.65
2019-04-05T22:28:07.556Z,10.60
2019-04-05T22:30:38.244Z,10.57
2019-04-05T22:33:07.639Z,10.54
2019-04-05T22:35:37.057Z,10.60
2019-04-05T22:38:07.448Z,10.64
2019-04-05T22:40:37.866Z,10.51
2019-04-05T22:43:07.500Z,10.47
2019-04-05T22:45:40.093Z,10.43
2019-04-05T22:48:11.399Z,10.43
2019-04-05T22:50:40.806Z,10.25
2019-04-05T22:53:10.327Z,10.16
2019-04-05T22:55:41.616Z,10.13
2019-04-05T22:58:11.854Z,9.96
2019-04-05T23:00:41.325Z,9.86
2019-04-05T23:03:11.932Z,9.83
2019-04-05T23:05:41.302Z,9.79
2019-04-05T23:08:11.886Z,9.77
2019-04-05T23:10:42.351Z,9.68
2019-04-05T23:13:12.686Z,9.57
2019-04-05T23:15:42.288Z,9.37
2019-04-05T23:18:12.658Z,9.29
2019-04-05T23:20:42.173Z,9.33
2019-04-05T23:23:12.564Z,9.32
2019-04-05T23:25:43.075Z,9.43
2019-04-05T23:28:12.498Z,9.39
2019-04-05T23:30:45.228Z,9.29
2019-04-05T23:33:14.649Z,9.45
2019-04-05T23:35:45.117Z,9.44
2019-04-05T23:38:14.604Z,9.28
2019-04-05T23:40:44.986Z,9.00
2019-04-05T23:43:14.602Z,8.95
2019-04-05T23:45:44.880Z,8.91
2019-04-05T23:48:14.328Z,8.88
2019-04-05T23:50:44.729Z,8.80
2019-04-05T23:53:15.134Z,8.73
2019-04-05T23:55:45.540Z,8.75
2019-04-05T23:58:15.116Z,8.71
